sensor_id;sensor_type;location;lat;lon;timestamp;temperature;humidity
43999;DHT22;51319;52.162;5.302;2023-07-31T00:00:05;15.70;99.90
43999;DHT22;51319;52.162;5.302;2023-07-31T00:02:32;15.80;99.90
43999;DHT22;51319;52.162;5.302;2023-07-31T00:05:00;15.80;99.90
43999;DHT22;51319;52.162;5.302;2023-07-31T00:07:27;15.80;99.90
43999;DHT22;51319;52.162;5.302;2023-07-31T00:09:54;15.80;99.90
43999;DHT22;51319;52.162;5.302;2023-07-31T00:12:23;15.80;99.90
43999;DHT22;51319;52.162;5.302;2023-07-31T00:14:50;15.80;99.90
43999;DHT22;51319;52.162;5.302;2023-07-31T00:17:17;15.80;99.90
43999;DHT22;51319;52.162;5.302;2023-07-31T00:19:44;15.90;99.90
43999;DHT22;51319;52.162;5.302;2023-07-31T00:22:13;15.90;99.90
43999;DHT22;51319;52.162;5.302;2023-07-31T00:24:40;15.90;99.90
43999;DHT22;51319;52.162;5.302;2023-07-31T00:27:06;15.90;99.90
43999;DHT22;51319;52.162;5.302;2023-07-31T00:29:33;16.00;99.90
43999;DHT22;51319;52.162;5.302;2023-07-31T00:32:00;16.00;99.90
43999;DHT22;51319;52.162;5.302;2023-07-31T00:34:27;16.00;99.90
43999;DHT22;51319;52.162;5.302;2023-07-31T00:36:54;16.00;99.90
43999;DHT22;51319;52.162;5.302;2023-07-31T00:39:21;16.00;99.90
43999;DHT22;51319;52.162;5.302;2023-07-31T00:41:49;16.00;99.90
43999;DHT22;51319;52.162;5.302;2023-07-31T00:44:16;16.00;99.90
43999;DHT22;51319;52.162;5.302;2023-07-31T00:46:43;16.00;99.90
43999;DHT22;51319;52.162;5.302;2023-07-31T00:49:11;16.00;99.90
43999;DHT22;51319;52.162;5.302;2023-07-31T00:51:38;16.00;99.90
43999;DHT22;51319;52.162;5.302;2023-07-31T00:54:06;16.10;99.90
43999;DHT22;51319;52.162;5.302;2023-07-31T00:56:33;16.10;99.90
43999;DHT22;51319;52.162;5.302;2023-07-31T00:59:00;16.10;99.90
43999;DHT22;51319;52.162;5.302;2023-07-31T01:01:27;16.20;99.90
43999;DHT22;51319;52.162;5.302;2023-07-31T01:03:55;16.20;99.90
43999;DHT22;51319;52.162;5.302;2023-07-31T01:09:23;16.30;99.90
43999;DHT22;51319;52.162;5.302;2023-07-31T01:11:55;16.30;99.90
43999;DHT22;51319;52.162;5.302;2023-07-31T01:14:23;16.30;99.90
43999;DHT22;51319;52.162;5.302;2023-07-31T01:16:52;16.30;99.90
43999;DHT22;51319;52.162;5.302;2023-07-31T01:19:22;16.20;99.90
43999;DHT22;51319;52.162;5.302;2023-07-31T01:27:17;16.20;99.90
43999;DHT22;51319;52.162;5.302;2023-07-31T01:29:55;16.20;99.90
43999;DHT22;51319;52.162;5.302;2023-07-31T01:32:23;16.10;99.90
43999;DHT22;51319;52.162;5.302;2023-07-31T01:34:51;16.10;99.90
43999;DHT22;51319;52.162;5.302;2023-07-31T01:37:20;16.10;99.90
43999;DHT22;51319;52.162;5.302;2023-07-31T01:39:47;16.10;99.90
43999;DHT22;51319;52.162;5.302;2023-07-31T01:42:14;16.00;99.90
43999;DHT22;51319;52.162;5.302;2023-07-31T01:44:41;16.10;99.90
43999;DHT22;51319;52.162;5.302;2023-07-31T01:47:08;16.10;99.90
43999;DHT22;51319;52.162;5.302;2023-07-31T01:49:35;16.10;99.90
43999;DHT22;51319;52.162;5.302;2023-07-31T01:52:02;16.10;99.90
43999;DHT22;51319;52.162;5.302;2023-07-31T01:54:29;16.20;99.90
43999;DHT22;51319;52.162;5.302;2023-07-31T01:56:56;16.20;99.90
43999;DHT22;51319;52.162;5.302;2023-07-31T01:59:23;16.20;99.90
43999;DHT22;51319;52.162;5.302;2023-07-31T02:01:51;16.30;99.90
43999;DHT22;51319;52.162;5.302;2023-07-31T02:04:21;16.30;99.90
43999;DHT22;51319;52.162;5.302;2023-07-31T02:06:48;16.30;99.90
43999;DHT22;51319;52.162;5.302;2023-07-31T02:09:16;16.30;99.90
43999;DHT22;51319;52.162;5.302;2023-07-31T02:11:43;16.30;99.90
43999;DHT22;51319;52.162;5.302;2023-07-31T02:14:10;16.30;99.90
43999;DHT22;51319;52.162;5.302;2023-07-31T02:16:38;16.30;99.90
43999;DHT22;51319;52.162;5.302;2023-07-31T02:19:05;16.30;99.90
43999;DHT22;51319;52.162;5.302;2023-07-31T02:21:32;16.30;99.90
43999;DHT22;51319;52.162;5.302;2023-07-31T02:23:59;16.30;99.90
43999;DHT22;51319;52.162;5.302;2023-07-31T02:26:26;16.20;99.90
43999;DHT22;51319;52.162;5.302;2023-07-31T02:28:53;16.20;99.90
43999;DHT22;51319;52.162;5.302;2023-07-31T02:31:20;16.30;99.90
43999;DHT22;51319;52.162;5.302;2023-07-31T02:33:49;16.30;99.90
43999;DHT22;51319;52.162;5.302;2023-07-31T02:36:15;16.30;99.90
43999;DHT22;51319;52.162;5.302;2023-07-31T02:38:42;16.30;99.90
43999;DHT22;51319;52.162;5.302;2023-07-31T02:41:09;16.30;99.90
43999;DHT22;51319;52.162;5.302;2023-07-31T02:43:36;16.30;99.90
43999;DHT22;51319;52.162;5.302;2023-07-31T02:46:03;16.30;99.90
43999;DHT22;51319;52.162;5.302;2023-07-31T02:48:30;16.30;99.90
43999;DHT22;51319;52.162;5.302;2023-07-31T02:50:57;16.30;99.90
43999;DHT22;51319;52.162;5.302;2023-07-31T02:53:24;16.30;99.90
43999;DHT22;51319;52.162;5.302;2023-07-31T02:55:50;16.40;99.90
43999;DHT22;51319;52.162;5.302;2023-07-31T02:58:17;16.40;99.90
43999;DHT22;51319;52.162;5.302;2023-07-31T03:00:44;16.40;99.90
43999;DHT22;51319;52.162;5.302;2023-07-31T03:03:11;16.40;99.90
43999;DHT22;51319;52.162;5.302;2023-07-31T03:05:38;16.40;99.90
43999;DHT22;51319;52.162;5.302;2023-07-31T03:08:05;16.40;99.90
43999;DHT22;51319;52.162;5.302;2023-07-31T03:10:32;16.40;99.90
43999;DHT22;51319;52.162;5.302;2023-07-31T03:12:59;16.50;99.90
43999;DHT22;51319;52.162;5.302;2023-07-31T03:15:26;16.50;99.90
43999;DHT22;51319;52.162;5.302;2023-07-31T03:17:53;16.50;99.90
43999;DHT22;51319;52.162;5.302;2023-07-31T03:20:20;16.50;99.90
43999;DHT22;51319;52.162;5.302;2023-07-31T03:22:47;16.50;99.90
43999;DHT22;51319;52.162;5.302;2023-07-31T03:25:14;16.50;99.90
43999;DHT22;51319;52.162;5.302;2023-07-31T03:27:41;16.50;99.90
43999;DHT22;51319;52.162;5.302;2023-07-31T03:30:08;16.50;99.90
43999;DHT22;51319;52.162;5.302;2023-07-31T03:32:35;16.50;99.90
43999;DHT22;51319;52.162;5.302;2023-07-31T03:35:02;16.50;99.90
43999;DHT22;51319;52.162;5.302;2023-07-31T03:37:29;16.50;99.90
43999;DHT22;51319;52.162;5.302;2023-07-31T03:39:56;16.50;99.90
43999;DHT22;51319;52.162;5.302;2023-07-31T03:42:23;16.50;99.90
43999;DHT22;51319;52.162;5.302;2023-07-31T03:44:51;16.50;99.90
43999;DHT22;51319;52.162;5.302;2023-07-31T03:47:18;16.50;99.90
43999;DHT22;51319;52.162;5.302;2023-07-31T03:49:45;16.50;99.90
43999;DHT22;51319;52.162;5.302;2023-07-31T03:52:12;16.50;99.90
43999;DHT22;51319;52.162;5.302;2023-07-31T03:54:39;16.50;99.90
43999;DHT22;51319;52.162;5.302;2023-07-31T03:57:06;16.50;99.90
43999;DHT22;51319;52.162;5.302;2023-07-31T03:59:33;16.50;99.90
43999;DHT22;51319;52.162;5.302;2023-07-31T04:02:00;16.40;99.90
43999;DHT22;51319;52.162;5.302;2023-07-31T04:04:26;16.50;99.90
43999;DHT22;51319;52.162;5.302;2023-07-31T04:06:53;16.50;99.90
43999;DHT22;51319;52.162;5.302;2023-07-31T04:09:20;16.50;99.90
43999;DHT22;51319;52.162;5.302;2023-07-31T04:11:47;16.50;99.90
43999;DHT22;51319;52.162;5.302;2023-07-31T04:14:14;16.40;99.90
43999;DHT22;51319;52.162;5.302;2023-07-31T04:16:41;16.40;99.90
43999;DHT22;51319;52.162;5.302;2023-07-31T04:19:08;16.40;99.90
43999;DHT22;51319;52.162;5.302;2023-07-31T04:21:37;16.40;99.90
43999;DHT22;51319;52.162;5.302;2023-07-31T04:24:04;16.40;99.90
43999;DHT22;51319;52.162;5.302;2023-07-31T04:26:31;16.40;99.90
43999;DHT22;51319;52.162;5.302;2023-07-31T04:28:59;16.40;99.90
43999;DHT22;51319;52.162;5.302;2023-07-31T04:31:26;16.40;99.90
43999;DHT22;51319;52.162;5.302;2023-07-31T04:33:53;16.40;99.90
43999;DHT22;51319;52.162;5.302;2023-07-31T04:36:20;16.40;99.90
43999;DHT22;51319;52.162;5.302;2023-07-31T04:38:47;16.40;99.90
43999;DHT22;51319;52.162;5.302;2023-07-31T04:41:14;16.40;99.90
43999;DHT22;51319;52.162;5.302;2023-07-31T04:43:40;16.40;99.90
43999;DHT22;51319;52.162;5.302;2023-07-31T04:46:08;16.40;99.90
43999;DHT22;51319;52.162;5.302;2023-07-31T04:48:35;16.40;99.90
43999;DHT22;51319;52.162;5.302;2023-07-31T04:51:01;16.40;99.90
43999;DHT22;51319;52.162;5.302;2023-07-31T04:53:28;16.40;99.90
43999;DHT22;51319;52.162;5.302;2023-07-31T04:55:55;16.40;99.90
43999;DHT22;51319;52.162;5.302;2023-07-31T04:58:22;16.30;99.90
43999;DHT22;51319;52.162;5.302;2023-07-31T05:00:49;16.30;99.90
43999;DHT22;51319;52.162;5.302;2023-07-31T05:03:16;16.30;99.90
43999;DHT22;51319;52.162;5.302;2023-07-31T05:05:43;16.30;99.90
43999;DHT22;51319;52.162;5.302;2023-07-31T05:08:10;16.30;99.90
43999;DHT22;51319;52.162;5.302;2023-07-31T05:10:37;16.30;99.90
43999;DHT22;51319;52.162;5.302;2023-07-31T05:13:04;16.30;99.90
43999;DHT22;51319;52.162;5.302;2023-07-31T05:15:31;16.30;99.90
43999;DHT22;51319;52.162;5.302;2023-07-31T05:17:58;16.30;99.90
43999;DHT22;51319;52.162;5.302;2023-07-31T05:20:25;16.30;99.90
43999;DHT22;51319;52.162;5.302;2023-07-31T05:22:54;16.30;99.90
43999;DHT22;51319;52.162;5.302;2023-07-31T05:25:21;16.30;99.90
43999;DHT22;51319;52.162;5.302;2023-07-31T05:27:48;16.30;99.90
43999;DHT22;51319;52.162;5.302;2023-07-31T05:30:15;16.20;99.90
43999;DHT22;51319;52.162;5.302;2023-07-31T05:32:41;16.20;99.90
43999;DHT22;51319;52.162;5.302;2023-07-31T05:35:08;16.10;99.90
43999;DHT22;51319;52.162;5.302;2023-07-31T05:37:35;16.10;99.90
43999;DHT22;51319;52.162;5.302;2023-07-31T05:40:03;16.10;99.90
43999;DHT22;51319;52.162;5.302;2023-07-31T05:42:30;16.10;99.90
43999;DHT22;51319;52.162;5.302;2023-07-31T05:44:57;16.10;99.90
43999;DHT22;51319;52.162;5.302;2023-07-31T05:47:23;16.20;99.90
43999;DHT22;51319;52.162;5.302;2023-07-31T05:49:50;16.20;99.90
43999;DHT22;51319;52.162;5.302;2023-07-31T05:52:20;16.20;99.90
43999;DHT22;51319;52.162;5.302;2023-07-31T05:54:47;16.20;99.90
43999;DHT22;51319;52.162;5.302;2023-07-31T05:57:14;16.20;99.90
43999;DHT22;51319;52.162;5.302;2023-07-31T05:59:41;16.20;99.90
43999;DHT22;51319;52.162;5.302;2023-07-31T06:02:08;16.20;99.90
43999;DHT22;51319;52.162;5.302;2023-07-31T06:04:35;16.20;99.90
43999;DHT22;51319;52.162;5.302;2023-07-31T06:07:02;16.20;99.90
43999;DHT22;51319;52.162;5.302;2023-07-31T06:09:30;16.20;99.90
43999;DHT22;51319;52.162;5.302;2023-07-31T06:11:57;16.30;99.90
43999;DHT22;51319;52.162;5.302;2023-07-31T06:14:24;16.30;99.90
43999;DHT22;51319;52.162;5.302;2023-07-31T06:16:54;16.30;99.90
43999;DHT22;51319;52.162;5.302;2023-07-31T06:19:20;16.30;99.90
43999;DHT22;51319;52.162;5.302;2023-07-31T06:21:47;16.30;99.90
43999;DHT22;51319;52.162;5.302;2023-07-31T06:24:14;16.30;99.90
43999;DHT22;51319;52.162;5.302;2023-07-31T06:26:45;16.30;99.90
43999;DHT22;51319;52.162;5.302;2023-07-31T06:29:12;16.30;99.90
43999;DHT22;51319;52.162;5.302;2023-07-31T06:31:40;16.30;99.90
43999;DHT22;51319;52.162;5.302;2023-07-31T06:34:10;16.40;99.90
43999;DHT22;51319;52.162;5.302;2023-07-31T06:36:37;16.40;99.90
43999;DHT22;51319;52.162;5.302;2023-07-31T06:39:04;16.40;99.90
43999;DHT22;51319;52.162;5.302;2023-07-31T06:41:31;16.50;99.90
43999;DHT22;51319;52.162;5.302;2023-07-31T06:43:58;16.50;99.90
43999;DHT22;51319;52.162;5.302;2023-07-31T06:46:25;16.60;99.90
43999;DHT22;51319;52.162;5.302;2023-07-31T06:48:52;16.60;99.90
43999;DHT22;51319;52.162;5.302;2023-07-31T06:51:19;16.60;99.90
43999;DHT22;51319;52.162;5.302;2023-07-31T06:53:46;16.70;99.90
43999;DHT22;51319;52.162;5.302;2023-07-31T06:56:12;16.70;99.90
43999;DHT22;51319;52.162;5.302;2023-07-31T06:58:39;16.60;99.90
43999;DHT22;51319;52.162;5.302;2023-07-31T07:01:06;16.70;99.90
43999;DHT22;51319;52.162;5.302;2023-07-31T07:03:33;16.70;99.90
43999;DHT22;51319;52.162;5.302;2023-07-31T07:06:01;16.70;99.90
43999;DHT22;51319;52.162;5.302;2023-07-31T07:08:28;16.80;99.90
43999;DHT22;51319;52.162;5.302;2023-07-31T07:10:55;16.80;99.90
43999;DHT22;51319;52.162;5.302;2023-07-31T07:13:22;16.90;99.90
43999;DHT22;51319;52.162;5.302;2023-07-31T07:15:50;16.90;99.90
43999;DHT22;51319;52.162;5.302;2023-07-31T07:18:17;16.90;99.90
43999;DHT22;51319;52.162;5.302;2023-07-31T07:20:54;17.00;99.90
43999;DHT22;51319;52.162;5.302;2023-07-31T07:23:21;17.00;99.90
43999;DHT22;51319;52.162;5.302;2023-07-31T07:25:48;17.00;99.90
43999;DHT22;51319;52.162;5.302;2023-07-31T07:28:15;17.00;99.90
43999;DHT22;51319;52.162;5.302;2023-07-31T07:30:42;17.00;99.90
43999;DHT22;51319;52.162;5.302;2023-07-31T07:33:09;17.00;99.90
43999;DHT22;51319;52.162;5.302;2023-07-31T07:35:36;17.00;99.90
43999;DHT22;51319;52.162;5.302;2023-07-31T07:38:03;17.10;99.90
43999;DHT22;51319;52.162;5.302;2023-07-31T07:40:30;17.10;99.90
43999;DHT22;51319;52.162;5.302;2023-07-31T07:42:57;17.10;99.90
43999;DHT22;51319;52.162;5.302;2023-07-31T07:45:24;17.20;99.90
43999;DHT22;51319;52.162;5.302;2023-07-31T07:47:51;17.20;99.90
43999;DHT22;51319;52.162;5.302;2023-07-31T07:50:18;17.20;99.90
43999;DHT22;51319;52.162;5.302;2023-07-31T07:52:45;17.20;99.90
43999;DHT22;51319;52.162;5.302;2023-07-31T07:55:12;17.30;99.90
43999;DHT22;51319;52.162;5.302;2023-07-31T07:57:39;17.30;99.90
43999;DHT22;51319;52.162;5.302;2023-07-31T08:00:06;17.30;99.90
43999;DHT22;51319;52.162;5.302;2023-07-31T08:02:33;17.40;99.90
43999;DHT22;51319;52.162;5.302;2023-07-31T08:05:00;17.40;99.90
43999;DHT22;51319;52.162;5.302;2023-07-31T08:07:27;17.50;99.90
43999;DHT22;51319;52.162;5.302;2023-07-31T08:09:54;17.60;99.90
43999;DHT22;51319;52.162;5.302;2023-07-31T08:12:21;17.70;99.90
43999;DHT22;51319;52.162;5.302;2023-07-31T08:14:48;17.70;99.90
43999;DHT22;51319;52.162;5.302;2023-07-31T08:17:15;17.60;99.90
43999;DHT22;51319;52.162;5.302;2023-07-31T08:19:42;17.60;99.90
43999;DHT22;51319;52.162;5.302;2023-07-31T08:22:09;17.70;99.90
43999;DHT22;51319;52.162;5.302;2023-07-31T08:24:35;17.80;99.90
43999;DHT22;51319;52.162;5.302;2023-07-31T08:27:02;17.80;99.90
43999;DHT22;51319;52.162;5.302;2023-07-31T08:29:29;17.80;99.90
43999;DHT22;51319;52.162;5.302;2023-07-31T08:31:56;17.80;99.90
43999;DHT22;51319;52.162;5.302;2023-07-31T08:34:23;17.90;99.90
43999;DHT22;51319;52.162;5.302;2023-07-31T08:36:50;17.90;99.90
43999;DHT22;51319;52.162;5.302;2023-07-31T08:39:17;18.00;99.90
43999;DHT22;51319;52.162;5.302;2023-07-31T08:41:44;18.10;99.90
43999;DHT22;51319;52.162;5.302;2023-07-31T08:44:12;18.10;99.90
43999;DHT22;51319;52.162;5.302;2023-07-31T08:46:40;18.20;99.90
43999;DHT22;51319;52.162;5.302;2023-07-31T08:49:09;18.30;99.90
43999;DHT22;51319;52.162;5.302;2023-07-31T08:51:37;18.30;99.90
43999;DHT22;51319;52.162;5.302;2023-07-31T08:54:04;18.40;99.90
43999;DHT22;51319;52.162;5.302;2023-07-31T08:56:32;18.40;99.90
43999;DHT22;51319;52.162;5.302;2023-07-31T08:59:02;18.40;99.90
43999;DHT22;51319;52.162;5.302;2023-07-31T09:01:36;18.50;99.90
43999;DHT22;51319;52.162;5.302;2023-07-31T09:04:04;18.60;99.90
43999;DHT22;51319;52.162;5.302;2023-07-31T09:06:32;18.60;99.90
43999;DHT22;51319;52.162;5.302;2023-07-31T09:09:00;18.50;99.90
43999;DHT22;51319;52.162;5.302;2023-07-31T09:11:27;18.60;99.90
43999;DHT22;51319;52.162;5.302;2023-07-31T09:13:57;18.60;99.90
43999;DHT22;51319;52.162;5.302;2023-07-31T09:16:28;18.60;99.90
43999;DHT22;51319;52.162;5.302;2023-07-31T09:18:58;18.70;99.90
43999;DHT22;51319;52.162;5.302;2023-07-31T09:21:25;18.80;99.90
43999;DHT22;51319;52.162;5.302;2023-07-31T09:23:54;18.80;99.90
43999;DHT22;51319;52.162;5.302;2023-07-31T09:26:36;19.00;99.90
43999;DHT22;51319;52.162;5.302;2023-07-31T09:29:18;19.10;99.90
43999;DHT22;51319;52.162;5.302;2023-07-31T09:31:45;19.30;99.90
43999;DHT22;51319;52.162;5.302;2023-07-31T09:34:13;19.40;99.90
43999;DHT22;51319;52.162;5.302;2023-07-31T09:36:46;19.40;99.90
43999;DHT22;51319;52.162;5.302;2023-07-31T09:39:14;19.50;99.90
43999;DHT22;51319;52.162;5.302;2023-07-31T09:41:44;19.50;99.90
43999;DHT22;51319;52.162;5.302;2023-07-31T09:44:13;19.50;99.90
43999;DHT22;51319;52.162;5.302;2023-07-31T09:46:40;19.50;99.90
43999;DHT22;51319;52.162;5.302;2023-07-31T09:49:09;19.40;99.90
43999;DHT22;51319;52.162;5.302;2023-07-31T09:51:40;19.30;99.90
43999;DHT22;51319;52.162;5.302;2023-07-31T09:54:12;19.30;99.90
43999;DHT22;51319;52.162;5.302;2023-07-31T09:56:48;19.40;99.90
43999;DHT22;51319;52.162;5.302;2023-07-31T09:59:17;19.40;99.90
43999;DHT22;51319;52.162;5.302;2023-07-31T10:01:49;19.30;99.90
43999;DHT22;51319;52.162;5.302;2023-07-31T10:04:18;19.30;99.90
43999;DHT22;51319;52.162;5.302;2023-07-31T10:06:49;19.40;99.90
43999;DHT22;51319;52.162;5.302;2023-07-31T10:09:21;19.40;99.90
43999;DHT22;51319;52.162;5.302;2023-07-31T10:12:00;19.50;99.90
43999;DHT22;51319;52.162;5.302;2023-07-31T10:14:27;19.60;99.90
43999;DHT22;51319;52.162;5.302;2023-07-31T10:16:57;19.70;99.90
43999;DHT22;51319;52.162;5.302;2023-07-31T10:19:26;19.70;99.90
43999;DHT22;51319;52.162;5.302;2023-07-31T10:21:54;19.90;99.90
43999;DHT22;51319;52.162;5.302;2023-07-31T10:24:23;20.20;99.90
43999;DHT22;51319;52.162;5.302;2023-07-31T10:26:52;20.20;99.90
43999;DHT22;51319;52.162;5.302;2023-07-31T10:29:20;20.10;99.90
43999;DHT22;51319;52.162;5.302;2023-07-31T10:31:49;20.10;99.90
43999;DHT22;51319;52.162;5.302;2023-07-31T10:34:16;19.90;99.90
43999;DHT22;51319;52.162;5.302;2023-07-31T10:36:43;19.80;99.90
43999;DHT22;51319;52.162;5.302;2023-07-31T10:39:33;19.70;99.90
43999;DHT22;51319;52.162;5.302;2023-07-31T10:42:12;19.70;99.90
43999;DHT22;51319;52.162;5.302;2023-07-31T10:44:49;19.70;99.90
43999;DHT22;51319;52.162;5.302;2023-07-31T10:47:16;19.70;99.90
43999;DHT22;51319;52.162;5.302;2023-07-31T10:49:46;19.60;99.90
43999;DHT22;51319;52.162;5.302;2023-07-31T10:52:14;19.60;99.90
43999;DHT22;51319;52.162;5.302;2023-07-31T10:54:45;19.60;99.90
43999;DHT22;51319;52.162;5.302;2023-07-31T10:57:20;19.50;99.90
43999;DHT22;51319;52.162;5.302;2023-07-31T10:59:48;19.60;99.90
43999;DHT22;51319;52.162;5.302;2023-07-31T11:02:26;19.50;99.90
43999;DHT22;51319;52.162;5.302;2023-07-31T11:05:07;19.50;99.90
43999;DHT22;51319;52.162;5.302;2023-07-31T11:07:50;19.50;99.90
43999;DHT22;51319;52.162;5.302;2023-07-31T11:10:18;19.60;99.90
43999;DHT22;51319;52.162;5.302;2023-07-31T11:12:46;19.70;99.90
43999;DHT22;51319;52.162;5.302;2023-07-31T11:15:13;19.80;99.90
43999;DHT22;51319;52.162;5.302;2023-07-31T11:17:40;20.00;99.90
43999;DHT22;51319;52.162;5.302;2023-07-31T11:20:08;20.10;99.90
43999;DHT22;51319;52.162;5.302;2023-07-31T11:22:36;20.20;99.90
43999;DHT22;51319;52.162;5.302;2023-07-31T11:25:03;20.10;99.90
43999;DHT22;51319;52.162;5.302;2023-07-31T11:27:30;20.10;99.90
43999;DHT22;51319;52.162;5.302;2023-07-31T11:30:01;20.00;99.90
43999;DHT22;51319;52.162;5.302;2023-07-31T11:32:28;20.10;99.90
43999;DHT22;51319;52.162;5.302;2023-07-31T11:34:55;20.00;99.90
43999;DHT22;51319;52.162;5.302;2023-07-31T11:37:23;20.10;99.90
43999;DHT22;51319;52.162;5.302;2023-07-31T11:40:02;20.40;99.90
43999;DHT22;51319;52.162;5.302;2023-07-31T11:42:30;20.40;99.90
43999;DHT22;51319;52.162;5.302;2023-07-31T11:44:57;20.30;99.90
43999;DHT22;51319;52.162;5.302;2023-07-31T11:47:25;20.20;99.90
43999;DHT22;51319;52.162;5.302;2023-07-31T11:49:53;20.10;99.90
43999;DHT22;51319;52.162;5.302;2023-07-31T11:52:20;20.10;99.90
43999;DHT22;51319;52.162;5.302;2023-07-31T11:54:47;20.00;99.90
43999;DHT22;51319;52.162;5.302;2023-07-31T11:57:14;19.90;99.90
43999;DHT22;51319;52.162;5.302;2023-07-31T11:59:43;19.80;99.90
43999;DHT22;51319;52.162;5.302;2023-07-31T12:02:11;19.80;99.90
43999;DHT22;51319;52.162;5.302;2023-07-31T12:04:38;19.70;99.90
43999;DHT22;51319;52.162;5.302;2023-07-31T12:07:05;19.70;99.90
43999;DHT22;51319;52.162;5.302;2023-07-31T12:09:32;19.60;99.90
43999;DHT22;51319;52.162;5.302;2023-07-31T12:11:59;19.50;99.90
43999;DHT22;51319;52.162;5.302;2023-07-31T12:14:27;19.60;99.90
43999;DHT22;51319;52.162;5.302;2023-07-31T12:16:59;19.60;99.90
43999;DHT22;51319;52.162;5.302;2023-07-31T12:19:26;19.60;99.90
43999;DHT22;51319;52.162;5.302;2023-07-31T12:22:01;19.60;99.90
43999;DHT22;51319;52.162;5.302;2023-07-31T12:24:28;19.60;99.90
43999;DHT22;51319;52.162;5.302;2023-07-31T12:26:55;19.70;99.90
43999;DHT22;51319;52.162;5.302;2023-07-31T12:29:22;19.60;99.90
43999;DHT22;51319;52.162;5.302;2023-07-31T12:31:49;19.40;99.90
43999;DHT22;51319;52.162;5.302;2023-07-31T12:34:18;19.20;99.90
43999;DHT22;51319;52.162;5.302;2023-07-31T12:36:47;19.20;99.90
43999;DHT22;51319;52.162;5.302;2023-07-31T12:39:17;19.10;99.90
43999;DHT22;51319;52.162;5.302;2023-07-31T12:41:44;19.10;99.90
43999;DHT22;51319;52.162;5.302;2023-07-31T12:44:11;19.20;99.90
43999;DHT22;51319;52.162;5.302;2023-07-31T12:46:38;19.20;99.90
43999;DHT22;51319;52.162;5.302;2023-07-31T12:49:05;19.20;99.90
43999;DHT22;51319;52.162;5.302;2023-07-31T12:51:32;19.40;99.90
43999;DHT22;51319;52.162;5.302;2023-07-31T12:53:59;19.50;99.90
43999;DHT22;51319;52.162;5.302;2023-07-31T12:56:26;19.60;99.90
43999;DHT22;51319;52.162;5.302;2023-07-31T12:58:53;19.70;99.90
43999;DHT22;51319;52.162;5.302;2023-07-31T13:01:23;19.80;99.90
43999;DHT22;51319;52.162;5.302;2023-07-31T13:03:50;19.90;99.90
43999;DHT22;51319;52.162;5.302;2023-07-31T13:06:17;20.10;99.90
43999;DHT22;51319;52.162;5.302;2023-07-31T13:08:44;20.30;99.90
43999;DHT22;51319;52.162;5.302;2023-07-31T13:11:10;20.50;99.90
43999;DHT22;51319;52.162;5.302;2023-07-31T13:13:37;20.80;99.90
43999;DHT22;51319;52.162;5.302;2023-07-31T13:16:04;20.80;99.90
43999;DHT22;51319;52.162;5.302;2023-07-31T13:18:31;20.80;99.90
43999;DHT22;51319;52.162;5.302;2023-07-31T13:20:58;20.70;99.90
43999;DHT22;51319;52.162;5.302;2023-07-31T13:23:25;20.70;99.90
43999;DHT22;51319;52.162;5.302;2023-07-31T13:25:52;20.80;99.90
43999;DHT22;51319;52.162;5.302;2023-07-31T13:28:19;21.10;99.90
43999;DHT22;51319;52.162;5.302;2023-07-31T13:30:46;21.10;99.90
43999;DHT22;51319;52.162;5.302;2023-07-31T13:33:13;21.00;99.90
43999;DHT22;51319;52.162;5.302;2023-07-31T13:35:59;20.80;99.90
43999;DHT22;51319;52.162;5.302;2023-07-31T13:38:26;20.60;99.90
43999;DHT22;51319;52.162;5.302;2023-07-31T13:40:53;20.50;99.90
43999;DHT22;51319;52.162;5.302;2023-07-31T13:43:20;20.40;99.90
43999;DHT22;51319;52.162;5.302;2023-07-31T13:45:48;20.40;99.90
43999;DHT22;51319;52.162;5.302;2023-07-31T13:48:15;20.40;99.90
43999;DHT22;51319;52.162;5.302;2023-07-31T13:50:42;20.30;99.90
43999;DHT22;51319;52.162;5.302;2023-07-31T13:53:09;20.30;99.90
43999;DHT22;51319;52.162;5.302;2023-07-31T13:55:36;20.40;99.90
43999;DHT22;51319;52.162;5.302;2023-07-31T13:58:03;20.60;99.90
43999;DHT22;51319;52.162;5.302;2023-07-31T14:00:30;20.70;99.90
43999;DHT22;51319;52.162;5.302;2023-07-31T14:02:57;20.60;99.90
43999;DHT22;51319;52.162;5.302;2023-07-31T14:05:23;20.50;99.90
43999;DHT22;51319;52.162;5.302;2023-07-31T14:07:50;20.40;99.90
43999;DHT22;51319;52.162;5.302;2023-07-31T14:10:17;20.30;99.90
43999;DHT22;51319;52.162;5.302;2023-07-31T14:12:44;20.20;99.90
43999;DHT22;51319;52.162;5.302;2023-07-31T14:15:11;20.10;99.90
43999;DHT22;51319;52.162;5.302;2023-07-31T14:17:38;20.00;99.90
43999;DHT22;51319;52.162;5.302;2023-07-31T14:20:06;20.00;99.90
43999;DHT22;51319;52.162;5.302;2023-07-31T14:22:34;20.00;99.90
43999;DHT22;51319;52.162;5.302;2023-07-31T14:25:01;20.00;99.90
43999;DHT22;51319;52.162;5.302;2023-07-31T14:27:28;20.10;99.90
43999;DHT22;51319;52.162;5.302;2023-07-31T14:29:55;20.10;99.90
43999;DHT22;51319;52.162;5.302;2023-07-31T14:32:22;20.10;99.90
43999;DHT22;51319;52.162;5.302;2023-07-31T14:34:52;20.10;99.90
43999;DHT22;51319;52.162;5.302;2023-07-31T14:37:19;20.00;99.90
43999;DHT22;51319;52.162;5.302;2023-07-31T14:39:46;19.90;99.90
43999;DHT22;51319;52.162;5.302;2023-07-31T14:42:13;19.80;99.90
43999;DHT22;51319;52.162;5.302;2023-07-31T14:44:40;19.80;99.90
43999;DHT22;51319;52.162;5.302;2023-07-31T14:47:12;19.80;99.90
43999;DHT22;51319;52.162;5.302;2023-07-31T14:49:39;19.70;99.90
43999;DHT22;51319;52.162;5.302;2023-07-31T14:52:06;19.70;99.90
43999;DHT22;51319;52.162;5.302;2023-07-31T14:54:36;19.70;99.90
43999;DHT22;51319;52.162;5.302;2023-07-31T14:57:03;19.60;99.90
43999;DHT22;51319;52.162;5.302;2023-07-31T14:59:30;19.60;99.90
43999;DHT22;51319;52.162;5.302;2023-07-31T15:01:56;19.50;99.90
43999;DHT22;51319;52.162;5.302;2023-07-31T15:04:23;19.50;99.90
43999;DHT22;51319;52.162;5.302;2023-07-31T15:06:55;19.60;99.90
43999;DHT22;51319;52.162;5.302;2023-07-31T15:09:22;19.50;99.90
43999;DHT22;51319;52.162;5.302;2023-07-31T15:11:49;19.50;99.90
43999;DHT22;51319;52.162;5.302;2023-07-31T15:14:16;19.50;99.90
43999;DHT22;51319;52.162;5.302;2023-07-31T15:16:43;19.50;99.90
43999;DHT22;51319;52.162;5.302;2023-07-31T15:19:10;19.50;99.90
43999;DHT22;51319;52.162;5.302;2023-07-31T15:21:38;19.50;99.90
43999;DHT22;51319;52.162;5.302;2023-07-31T15:24:04;19.40;99.90
43999;DHT22;51319;52.162;5.302;2023-07-31T15:26:31;19.30;99.90
43999;DHT22;51319;52.162;5.302;2023-07-31T15:29:04;19.30;99.90
43999;DHT22;51319;52.162;5.302;2023-07-31T15:31:35;19.20;99.90
43999;DHT22;51319;52.162;5.302;2023-07-31T15:34:02;19.20;99.90
43999;DHT22;51319;52.162;5.302;2023-07-31T15:36:30;19.10;99.90
43999;DHT22;51319;52.162;5.302;2023-07-31T15:38:57;19.10;99.90
43999;DHT22;51319;52.162;5.302;2023-07-31T15:41:24;19.10;99.90